createdAt,value
2022-11-02T00:01:28.104Z,1660.68
2022-11-02T00:03:57.666Z,1661.90
2022-11-02T00:06:25.748Z,1664.60
2022-11-02T00:08:53.859Z,1662.40
2022-11-02T00:11:21.997Z,1661.18
2022-11-02T00:13:50.115Z,1659.10
2022-11-02T00:16:19.837Z,1658.38
2022-11-02T00:18:52.017Z,1661.43
2022-11-02T00:21:22.547Z,1662.35
2022-11-02T00:23:51.166Z,1665.20
2022-11-02T00:26:19.835Z,1662.35
2022-11-02T00:28:48.115Z,1661.60
2022-11-02T00:31:16.259Z,1667.72
2022-11-02T00:33:44.416Z,1666.25
2022-11-02T00:36:12.538Z,1668.50
2022-11-02T00:38:42.010Z,1666.95
2022-11-02T00:41:10.195Z,1670.28
2022-11-02T00:43:38.319Z,1669.50
2022-11-02T00:46:06.697Z,1668.57
2022-11-02T00:48:34.781Z,1663.28
2022-11-02T00:51:02.841Z,1667.85
2022-11-02T00:53:31.558Z,1664.75
2022-11-02T00:56:02.042Z,1667.57
2022-11-02T00:58:30.267Z,1666.85
2022-11-02T01:00:58.853Z,1665.18
2022-11-02T01:03:27.213Z,1672.10
2022-11-02T01:05:55.206Z,1669.32
2022-11-02T01:08:23.307Z,1669.70
2022-11-02T01:10:51.545Z,1670.97
2022-11-02T01:13:20.995Z,1669.43
2022-11-02T01:15:49.051Z,1666.40
2022-11-02T01:18:17.180Z,1672.60
2022-11-02T01:20:45.215Z,1667.65
2022-11-02T01:23:13.837Z,1671.13
2022-11-02T01:25:46.821Z,1669.13
2022-11-02T01:28:15.091Z,1662.68
2022-11-02T01:30:44.837Z,1663.18
2022-11-02T01:33:13.629Z,1665.07
2022-11-02T01:35:42.006Z,1663.80
2022-11-02T01:38:10.023Z,1660.50
2022-11-02T01:40:39.184Z,1662.28
2022-11-02T01:43:21.332Z,1663.15
2022-11-02T01:45:53.579Z,1661.40
2022-11-02T01:48:27.955Z,1658.05
2022-11-02T01:50:56.099Z,1660.65
2022-11-02T01:53:24.511Z,1656.07
2022-11-02T01:55:53.210Z,1659.05
2022-11-02T01:58:21.454Z,1660.28
2022-11-02T02:00:50.991Z,1660.57
2022-11-02T02:03:21.340Z,1659.78
2022-11-02T02:05:57.394Z,1661.10
2022-11-02T02:08:27.570Z,1662.07
2022-11-02T02:10:57.738Z,1661.50
2022-11-02T02:13:28.819Z,1656.75
2022-11-02T02:16:08.147Z,1662.65
2022-11-02T02:18:41.991Z,1662.38
2022-11-02T02:21:26.163Z,1656.15
2022-11-02T02:24:30.709Z,1655.18
2022-11-02T02:27:14.042Z,1655.60
2022-11-02T02:30:03.052Z,1652.85
2022-11-02T02:32:39.695Z,1653.55
2022-11-02T02:35:23.047Z,1653.40
2022-11-02T02:37:56.905Z,1654.40
2022-11-02T02:40:31.427Z,1650.03
2022-11-02T02:43:05.712Z,1652.88
2022-11-02T02:45:39.543Z,1653.55
2022-11-02T02:48:13.113Z,1652.65
2022-11-02T02:50:47.071Z,1655.90
2022-11-02T02:53:16.076Z,1653.97
2022-11-02T02:55:47.458Z,1658.10
2022-11-02T02:58:19.665Z,1653.97
2022-11-02T03:00:49.589Z,1653.25
2022-11-02T03:03:21.121Z,1655.88
2022-11-02T03:06:05.056Z,1653.57
2022-11-02T03:08:39.449Z,1654.18
2022-11-02T03:11:14.479Z,1657.25
2022-11-02T03:14:04.520Z,1652.97
2022-11-02T03:16:44.946Z,1655.63
2022-11-02T03:19:22.241Z,1654.93
2022-11-02T03:22:00.641Z,1651.05
2022-11-02T03:24:35.952Z,1650.70
2022-11-02T03:27:17.054Z,1654.57
2022-11-02T03:29:53.830Z,1652.72
2022-11-02T03:32:29.013Z,1654.20
2022-11-02T03:34:59.378Z,1651.60
2022-11-02T03:37:34.078Z,1653.60
2022-11-02T03:40:08.913Z,1653.47
2022-11-02T03:42:38.674Z,1651.70
2022-11-02T03:45:11.945Z,1643.15
2022-11-02T03:47:44.666Z,1641.07
2022-11-02T03:50:15.052Z,1643.30
2022-11-02T03:52:47.083Z,1644.80
2022-11-02T03:55:20.537Z,1646.20
2022-11-02T03:57:50.215Z,1647.45
2022-11-02T04:00:23.705Z,1643.33
2022-11-02T04:03:07.983Z,1644.60
2022-11-02T04:05:41.370Z,1645.07
2022-11-02T04:08:34.062Z,1645.35
2022-11-02T04:11:33.734Z,1643.88
2022-11-02T04:14:26.707Z,1643.60
2022-11-02T04:17:15.710Z,1645.83
2022-11-02T04:19:50.076Z,1644.15
2022-11-02T04:22:38.455Z,1645.43
2022-11-02T04:25:18.676Z,1653.70
2022-11-02T04:28:16.408Z,1658.70
2022-11-02T04:30:49.043Z,1655.32
2022-11-02T04:33:36.119Z,1654.50
2022-11-02T04:36:24.321Z,1663.63
2022-11-02T04:38:55.717Z,1662.95
2022-11-02T04:41:44.147Z,1664.73
2022-11-02T04:44:29.143Z,1658.78
2022-11-02T04:47:12.245Z,1660.72
2022-11-02T04:49:40.478Z,1657.35
2022-11-02T04:52:14.104Z,1655.40
2022-11-02T04:54:47.759Z,1656.47
2022-11-02T04:57:15.961Z,1655.28
2022-11-02T04:59:45.064Z,1657.77
2022-11-02T05:02:14.521Z,1655.20
2022-11-02T05:04:44.248Z,1651.77
2022-11-02T05:07:15.091Z,1652.53
2022-11-02T05:09:43.222Z,1652.75
2022-11-02T05:12:12.935Z,1649.03
2022-11-02T05:14:41.748Z,1647.18
2022-11-02T05:17:10.115Z,1649.75
2022-11-02T05:19:39.541Z,1647.93
2022-11-02T05:22:07.822Z,1650.55
2022-11-02T05:24:37.471Z,1653.53
2022-11-02T05:27:06.543Z,1652.18
2022-11-02T05:29:37.375Z,1655.15
2022-11-02T05:32:06.339Z,1650.10
2022-11-02T05:34:35.448Z,1648.82
2022-11-02T05:37:03.833Z,1642.85
2022-11-02T05:39:31.970Z,1642.75
2022-11-02T05:42:02.168Z,1642.20
2022-11-02T05:44:30.886Z,1636.18
2022-11-02T05:46:59.869Z,1643.20
2022-11-02T05:49:28.049Z,1642.05
2022-11-02T05:51:56.348Z,1644.22
2022-11-02T05:54:24.557Z,1643.83
2022-11-02T05:56:52.630Z,1651.75
2022-11-02T05:59:21.989Z,1651.00
2022-11-02T06:01:51.929Z,1651.43
2022-11-02T06:04:20.029Z,1654.47
2022-11-02T06:06:48.122Z,1649.82
2022-11-02T06:09:16.288Z,1649.35
2022-11-02T06:11:44.595Z,1649.68
2022-11-02T06:14:12.672Z,1652.97
2022-11-02T06:16:42.031Z,1649.10
2022-11-02T06:19:10.141Z,1648.15
2022-11-02T06:21:38.303Z,1647.55
2022-11-02T06:24:06.531Z,1645.03
2022-11-02T06:26:34.573Z,1643.22
2022-11-02T06:29:02.932Z,1650.30
2022-11-02T06:31:31.072Z,1647.32
2022-11-02T06:34:00.572Z,1647.13
2022-11-02T06:36:29.803Z,1642.80
2022-11-02T06:38:57.839Z,1645.93
2022-11-02T06:41:25.947Z,1646.82
2022-11-02T06:43:54.082Z,1643.90
2022-11-02T06:46:22.319Z,1643.25
2022-11-02T06:48:50.423Z,1637.60
2022-11-02T06:51:20.001Z,1637.80
2022-11-02T06:53:48.062Z,1639.45
2022-11-02T06:59:08.737Z,1637.88
2022-11-02T07:01:37.087Z,1637.07
2022-11-02T07:04:05.624Z,1640.40
2022-11-02T07:06:35.213Z,1635.05
2022-11-02T07:11:55.894Z,1633.15
2022-11-02T07:14:23.897Z,1636.53
2022-11-02T07:16:52.491Z,1632.85
2022-11-02T07:19:20.486Z,1630.75
2022-11-02T07:21:49.984Z,1630.13
2022-11-02T07:24:18.107Z,1631.72
2022-11-02T07:26:49.264Z,1628.85
2022-11-02T07:29:17.936Z,1630.82
2022-11-02T07:31:46.688Z,1632.00
2022-11-02T07:34:17.090Z,1634.63
2022-11-02T07:36:46.139Z,1631.85
2022-11-02T07:39:16.403Z,1633.05
2022-11-02T07:41:49.297Z,1629.97
2022-11-02T07:44:19.882Z,1627.68
2022-11-02T07:46:57.016Z,1627.32
2022-11-02T07:49:25.333Z,1629.80
2022-11-02T07:51:53.328Z,1629.63
2022-11-02T07:54:22.971Z,1631.38
2022-11-02T07:56:51.066Z,1618.72
2022-11-02T07:59:19.463Z,1614.63
2022-11-02T08:01:47.600Z,1609.93
2022-11-02T08:04:15.917Z,1613.88
2022-11-02T08:06:44.041Z,1610.93
2022-11-02T08:09:12.313Z,1611.28
2022-11-02T08:11:41.959Z,1614.13
2022-11-02T08:14:10.452Z,1614.82
2022-11-02T08:16:38.532Z,1616.70
2022-11-02T08:19:06.702Z,1617.32
2022-11-02T08:21:34.725Z,1619.22
2022-11-02T08:24:03.041Z,1619.40
2022-11-02T08:26:31.165Z,1622.90
2022-11-02T08:29:00.623Z,1617.45
2022-11-02T08:31:28.748Z,1619.75
2022-11-02T08:33:58.751Z,1620.82
2022-11-02T08:36:26.760Z,1623.50
2022-11-02T08:38:54.845Z,1613.50
2022-11-02T08:41:22.904Z,1615.85
2022-11-02T08:43:50.894Z,1618.68
2022-11-02T08:46:20.446Z,1618.80
2022-11-02T08:48:48.629Z,1616.97
2022-11-02T08:51:16.839Z,1612.32
2022-11-02T08:53:50.229Z,1614.18
2022-11-02T08:56:20.149Z,1610.18
2022-11-02T08:58:48.208Z,1611.60
2022-11-02T09:01:16.926Z,1605.32
2022-11-02T09:03:46.724Z,1606.82
2022-11-02T09:06:15.029Z,1596.57
2022-11-02T09:08:43.148Z,1601.28
2022-11-02T09:11:11.167Z,1597.78
2022-11-02T09:13:39.816Z,1602.63
2022-11-02T09:16:08.578Z,1609.72
2022-11-02T09:18:36.734Z,1608.83
2022-11-02T09:21:06.780Z,1603.60
2022-11-02T09:23:35.138Z,1603.25
2022-11-02T09:26:03.190Z,1600.10
2022-11-02T09:28:31.292Z,1597.10
2022-11-02T09:30:59.443Z,1596.00
2022-11-02T09:33:29.685Z,1597.10
2022-11-02T09:35:57.717Z,1591.53
2022-11-02T09:38:27.210Z,1591.80
2022-11-02T09:41:08.339Z,1592.63
2022-11-02T09:43:45.987Z,1589.55
2022-11-02T09:46:20.280Z,1594.40
2022-11-02T09:48:53.066Z,1590.10
2022-11-02T09:51:23.536Z,1589.63
2022-11-02T09:54:04.197Z,1577.22
2022-11-02T09:56:33.166Z,1576.00
2022-11-02T09:59:03.798Z,1574.35
2022-11-02T10:01:41.280Z,1579.00
2022-11-02T10:04:57.052Z,1575.88
2022-11-02T10:07:38.092Z,1577.90
2022-11-02T10:10:15.153Z,1573.53
2022-11-02T10:12:52.364Z,1544.18
2022-11-02T10:15:24.005Z,1540.68
2022-11-02T10:17:56.311Z,1552.30
2022-11-02T10:20:27.931Z,1544.57
2022-11-02T10:23:00.581Z,1552.07
2022-11-02T10:25:30.317Z,1545.50
2022-11-02T10:28:04.654Z,1546.53
2022-11-02T10:30:33.906Z,1550.82
2022-11-02T10:33:02.094Z,1543.57
2022-11-02T10:35:57.580Z,1545.57
2022-11-02T10:38:43.803Z,1548.00
2022-11-02T10:41:34.426Z,1542.43
2022-11-02T10:44:19.662Z,1542.67
2022-11-02T10:47:03.723Z,1536.03
2022-11-02T10:50:01.875Z,1546.28
2022-11-02T10:52:36.194Z,1547.32
2022-11-02T10:55:04.947Z,1548.47
2022-11-02T10:57:35.365Z,1550.20
2022-11-02T11:00:33.269Z,1550.10
2022-11-02T11:03:10.166Z,1542.53
2022-11-02T11:05:54.372Z,1545.68
2022-11-02T11:08:30.636Z,1542.78
2022-11-02T11:11:15.583Z,1543.63
2022-11-02T11:16:44.882Z,1541.95
2022-11-02T11:19:41.501Z,1514.50
2022-11-02T11:22:28.523Z,1498.72
2022-11-02T11:25:27.130Z,1505.55
2022-11-02T11:27:57.486Z,1507.07
2022-11-02T11:30:53.990Z,1504.82
2022-11-02T11:33:20.585Z,1512.40
2022-11-02T11:35:51.290Z,1514.22
2022-11-02T11:38:22.236Z,1510.13
2022-11-02T11:40:54.475Z,1507.60
2022-11-02T11:43:25.639Z,1516.45
2022-11-02T11:46:05.775Z,1512.85
2022-11-02T11:48:40.655Z,1511.90
2022-11-02T11:51:26.565Z,1513.53
2022-11-02T11:54:18.653Z,1516.78
2022-11-02T11:56:47.220Z,1523.32
2022-11-02T11:59:22.467Z,1519.80
2022-11-02T12:01:54.600Z,1513.63
2022-11-02T12:04:34.594Z,1521.35
2022-11-02T12:07:17.798Z,1525.03
2022-11-02T12:09:54.381Z,1525.30
2022-11-02T12:12:32.830Z,1527.28
2022-11-02T12:15:13.045Z,1530.00
2022-11-02T12:17:55.526Z,1530.68
2022-11-02T12:20:50.409Z,1533.10
2022-11-02T12:23:36.538Z,1529.63
2022-11-02T12:26:18.820Z,1531.82
2022-11-02T12:28:57.243Z,1533.40
2022-11-02T12:31:31.385Z,1531.80
2022-11-02T12:34:18.284Z,1528.53
2022-11-02T12:40:07.735Z,1535.05
2022-11-02T12:42:43.216Z,1529.57
2022-11-02T12:45:25.377Z,1526.55
2022-11-02T12:47:58.289Z,1530.88
2022-11-02T12:50:43.939Z,1531.63
2022-11-02T12:53:40.164Z,1529.38
2022-11-02T12:56:14.896Z,1531.55
2022-11-02T12:58:43.493Z,1537.07
2022-11-02T13:01:20.518Z,1538.17
2022-11-02T13:03:54.096Z,1533.45
2022-11-02T13:06:27.744Z,1538.28
2022-11-02T13:09:01.504Z,1536.10
2022-11-02T13:11:35.336Z,1534.63
2022-11-02T13:14:07.266Z,1532.82
2022-11-02T13:16:41.757Z,1537.70
2022-11-02T13:19:17.272Z,1539.40
2022-11-02T13:21:50.729Z,1542.82
2022-11-02T13:24:27.867Z,1540.95
2022-11-02T13:27:14.332Z,1539.05
2022-11-02T13:29:51.790Z,1545.80
2022-11-02T13:32:33.415Z,1541.53
2022-11-02T13:35:07.633Z,1546.50
2022-11-02T13:37:40.640Z,1547.72
2022-11-02T13:40:18.197Z,1545.00
2022-11-02T13:43:17.178Z,1546.80
2022-11-02T13:46:13.479Z,1554.32
2022-11-02T13:48:55.199Z,1550.03
2022-11-02T13:51:31.944Z,1546.20
2022-11-02T13:54:04.734Z,1560.18
2022-11-02T13:56:37.386Z,1551.32
2022-11-02T13:59:09.191Z,1554.63
2022-11-02T14:01:41.765Z,1555.15
2022-11-02T14:04:12.875Z,1556.90
2022-11-02T14:06:52.070Z,1559.47
2022-11-02T14:09:35.187Z,1552.77
2022-11-02T14:12:29.366Z,1554.73
2022-11-02T14:15:48.308Z,1552.50
2022-11-02T14:18:31.390Z,1545.32
2022-11-02T14:21:00.421Z,1543.40
2022-11-02T14:23:39.441Z,1548.32
2022-11-02T14:26:53.547Z,1546.28
2022-11-02T14:29:49.173Z,1545.05
2022-11-02T14:32:24.016Z,1540.45
2022-11-02T14:35:05.740Z,1545.50
2022-11-02T14:37:49.577Z,1546.60
2022-11-02T14:40:32.119Z,1544.35
2022-11-02T14:43:34.273Z,1542.05
2022-11-02T14:46:11.973Z,1544.35
2022-11-02T14:48:48.853Z,1541.43
2022-11-02T14:51:22.586Z,1537.80
2022-11-02T14:53:57.813Z,1541.95
2022-11-02T14:56:26.404Z,1546.55
2022-11-02T14:58:58.143Z,1557.25
2022-11-02T15:01:26.375Z,1554.35
2022-11-02T15:03:54.582Z,1554.45
2022-11-02T15:06:26.523Z,1559.80
2022-11-02T15:08:57.062Z,1553.28
2022-11-02T15:11:44.177Z,1543.07
2022-11-02T15:14:49.574Z,1540.32
2022-11-02T15:17:59.851Z,1544.45
2022-11-02T15:20:31.412Z,1543.67
2022-11-02T15:23:30.056Z,1550.50
2022-11-02T15:26:00.092Z,1544.50
2022-11-02T15:28:34.871Z,1548.20
2022-11-02T15:31:08.161Z,1548.70
2022-11-02T15:33:40.043Z,1551.18
2022-11-02T15:36:15.234Z,1544.95
2022-11-02T15:38:49.407Z,1547.47
2022-11-02T15:41:28.649Z,1547.80
2022-11-02T15:44:12.000Z,1550.03
2022-11-02T15:46:53.552Z,1550.50
2022-11-02T15:49:41.278Z,1541.93
2022-11-02T15:52:18.707Z,1547.47
2022-11-02T15:55:04.008Z,1541.03
2022-11-02T15:57:41.323Z,1546.05
2022-11-02T16:00:19.112Z,1541.67
2022-11-02T16:02:49.434Z,1545.03
2022-11-02T16:05:22.796Z,1545.30
2022-11-02T16:10:42.149Z,1545.77
2022-11-02T16:13:17.351Z,1541.32
2022-11-02T16:15:46.618Z,1547.75
2022-11-02T16:18:25.990Z,1544.60
2022-11-02T16:20:59.688Z,1548.90
2022-11-02T16:23:31.129Z,1568.00
2022-11-02T16:26:01.389Z,1583.55
2022-11-02T16:28:31.673Z,1606.63
2022-11-02T16:31:01.346Z,1606.45
2022-11-02T16:33:32.635Z,1601.47
2022-11-02T16:36:04.186Z,1610.25
2022-11-02T16:38:33.445Z,1610.75
2022-11-02T16:41:02.514Z,1612.38
2022-11-02T16:43:31.951Z,1607.95
2022-11-02T16:46:06.420Z,1611.68
2022-11-02T16:48:35.084Z,1611.47
2022-11-02T16:51:13.445Z,1617.82
2022-11-02T16:53:43.120Z,1614.97
2022-11-02T16:56:27.754Z,1617.03
2022-11-02T16:59:02.959Z,1614.00
2022-11-02T17:01:38.851Z,1616.68
2022-11-02T17:04:22.697Z,1614.90
2022-11-02T17:06:54.831Z,1613.57
2022-11-02T17:09:27.963Z,1617.20
2022-11-02T17:11:58.993Z,1621.90
2022-11-02T17:14:28.623Z,1621.07
2022-11-02T17:17:03.085Z,1623.07
2022-11-02T17:19:48.080Z,1624.53
2022-11-02T17:22:24.786Z,1638.60
2022-11-02T17:25:05.268Z,1644.03
2022-11-02T17:27:39.177Z,1644.65
2022-11-02T17:30:44.776Z,1644.13
2022-11-02T17:33:31.871Z,1648.68
2022-11-02T17:36:06.377Z,1654.73
2022-11-02T17:38:36.208Z,1656.78
2022-11-02T17:41:24.577Z,1656.85
2022-11-02T17:43:51.927Z,1655.63
2022-11-02T17:46:20.188Z,1667.18
2022-11-02T17:48:50.327Z,1174.60
2022-11-02T17:51:21.127Z,1659.75
2022-11-02T17:53:51.864Z,1666.07
2022-11-02T17:56:19.964Z,1670.20
2022-11-02T17:58:48.066Z,1673.35
2022-11-02T18:01:16.355Z,1670.55
2022-11-02T18:03:44.453Z,1676.90
2022-11-02T18:06:12.574Z,1672.03
2022-11-02T18:08:54.572Z,1670.05
2022-11-02T18:11:26.552Z,1667.90
2022-11-02T18:13:55.027Z,1664.38
2022-11-02T18:16:23.121Z,1668.50
2022-11-02T18:18:51.269Z,1664.05
2022-11-02T18:21:19.365Z,1664.72
2022-11-02T18:23:47.879Z,1669.47
2022-11-02T18:26:16.177Z,1667.60
2022-11-02T18:28:45.878Z,1671.45
2022-11-02T18:31:13.990Z,1672.55
2022-11-02T18:33:44.155Z,1671.40
2022-11-02T18:36:12.292Z,1670.68
2022-11-02T18:38:40.482Z,1673.13
2022-11-02T18:41:23.748Z,1675.60
2022-11-02T18:43:53.553Z,1678.38
2022-11-02T18:46:24.301Z,1675.87
2022-11-02T18:48:55.057Z,1680.13
2022-11-02T18:51:23.743Z,1680.28
2022-11-02T18:53:56.117Z,1683.03
2022-11-02T18:56:24.219Z,1685.55
2022-11-02T18:58:54.817Z,1685.05
2022-11-02T19:01:24.729Z,1687.30
2022-11-02T19:03:55.629Z,1681.47
2022-11-02T19:06:42.110Z,1683.15
2022-11-02T19:09:23.199Z,1686.10
2022-11-02T19:11:54.486Z,1681.70
2022-11-02T19:14:25.169Z,1685.35
2022-11-02T19:16:53.231Z,1686.20
2022-11-02T19:19:21.648Z,1685.55
2022-11-02T19:21:49.734Z,1683.57
2022-11-02T19:24:18.036Z,1684.50
2022-11-02T19:26:46.076Z,1686.57
2022-11-02T19:29:14.524Z,1684.88
2022-11-02T19:31:44.565Z,1685.93
2022-11-02T19:34:12.901Z,1682.70
2022-11-02T19:36:41.062Z,1685.45
2022-11-02T19:39:10.161Z,1689.47
2022-11-02T19:41:39.091Z,1689.22
2022-11-02T19:44:07.617Z,1687.75
2022-11-02T19:46:36.169Z,1685.15
2022-11-02T19:49:05.654Z,1684.65
2022-11-02T19:51:33.973Z,1684.75
2022-11-02T19:54:03.627Z,1687.95
2022-11-02T19:56:33.359Z,1685.40
2022-11-02T19:59:02.246Z,1686.73
2022-11-02T20:01:32.179Z,1687.70
2022-11-02T20:04:00.799Z,1687.32
2022-11-02T20:06:33.746Z,1686.53
2022-11-02T20:09:06.290Z,1680.28
2022-11-02T20:11:35.978Z,1681.93
2022-11-02T20:14:05.246Z,1688.43
2022-11-02T20:16:33.425Z,1687.95
2022-11-02T20:19:01.455Z,1687.23
2022-11-02T20:21:35.649Z,1688.72
2022-11-02T20:24:08.907Z,1685.28
2022-11-02T20:26:37.992Z,1685.45
2022-11-02T20:29:10.791Z,1683.00
2022-11-02T20:31:42.174Z,1688.35
2022-11-02T20:34:10.369Z,1686.57
2022-11-02T20:36:39.918Z,1686.13
2022-11-02T20:39:08.054Z,1688.20
2022-11-02T20:41:36.127Z,1684.68
2022-11-02T20:44:04.299Z,1685.15
2022-11-02T20:46:41.980Z,1684.50
2022-11-02T20:49:22.308Z,1686.35
2022-11-02T20:52:00.374Z,1686.00
2022-11-02T20:54:30.124Z,1687.00
2022-11-02T20:56:58.496Z,1685.60
2022-11-02T20:59:26.583Z,1683.30
2022-11-02T21:01:54.843Z,1684.68
2022-11-02T21:04:23.178Z,1682.78
2022-11-02T21:06:51.452Z,1687.88
2022-11-02T21:09:21.235Z,1689.97
2022-11-02T21:12:07.026Z,1681.43
2022-11-02T21:14:35.274Z,1683.10
2022-11-02T21:17:03.419Z,1687.75
2022-11-02T21:19:31.642Z,1684.65
2022-11-02T21:22:00.792Z,1686.22
2022-11-02T21:24:30.497Z,1688.10
2022-11-02T21:26:58.682Z,1684.18
2022-11-02T21:29:27.051Z,1684.38
2022-11-02T21:31:55.055Z,1686.72
2022-11-02T21:34:23.236Z,1682.57
2022-11-02T21:36:51.424Z,1685.07
2022-11-02T21:39:19.736Z,1681.60
2022-11-02T21:41:49.271Z,1679.38
2022-11-02T21:44:17.435Z,1683.40
2022-11-02T21:46:45.469Z,1685.38
2022-11-02T21:49:13.591Z,1685.57
2022-11-02T21:51:42.907Z,1685.85
2022-11-02T21:54:11.333Z,1685.22
2022-11-02T21:56:39.683Z,1683.22
2022-11-02T21:59:09.952Z,1684.25
2022-11-02T22:01:49.050Z,1682.90
2022-11-02T22:04:21.612Z,1685.28
2022-11-02T22:06:50.869Z,1687.22
2022-11-02T22:09:19.467Z,1686.90
2022-11-02T22:11:47.804Z,1687.40
2022-11-02T22:14:17.174Z,1684.95
2022-11-02T22:16:45.317Z,1683.18
2022-11-02T22:19:14.479Z,1685.88
2022-11-02T22:21:44.565Z,1686.38
2022-11-02T22:24:13.261Z,1684.50
2022-11-02T22:26:41.536Z,1690.88
2022-11-02T22:29:10.144Z,1685.82
2022-11-02T22:31:41.622Z,1692.38
2022-11-02T22:34:11.383Z,1688.60
2022-11-02T22:36:41.231Z,1685.50
2022-11-02T22:39:11.934Z,1685.22
2022-11-02T22:41:42.784Z,1689.00
2022-11-02T22:44:12.392Z,1687.90
2022-11-02T22:46:43.290Z,1687.57
2022-11-02T22:49:13.645Z,1686.57
2022-11-02T22:51:43.821Z,1686.50
2022-11-02T22:54:15.410Z,1688.32
2022-11-02T22:56:44.400Z,1689.57
2022-11-02T22:59:12.507Z,1688.87
2022-11-02T23:01:42.137Z,1688.03
2022-11-02T23:04:12.298Z,1686.63
2022-11-02T23:06:40.922Z,1686.07
2022-11-02T23:09:09.023Z,1688.72
2022-11-02T23:12:00.763Z,1690.15
2022-11-02T23:14:53.986Z,1036.47
2022-11-02T23:17:23.483Z,1060.72
2022-11-02T23:19:50.490Z,1066.63
2022-11-02T23:22:36.388Z,1063.18
2022-11-02T23:25:12.704Z,1062.00
2022-11-02T23:27:56.368Z,1067.70
2022-11-02T23:30:43.111Z,1062.55
2022-11-02T23:33:12.684Z,1061.13
2022-11-02T23:35:58.231Z,1067.10
2022-11-02T23:38:46.385Z,1063.82
2022-11-02T23:41:14.559Z,1064.53
2022-11-02T23:43:42.700Z,1061.70
2022-11-02T23:46:10.780Z,1060.82
2022-11-02T23:48:42.635Z,1065.70
2022-11-02T23:51:29.374Z,1062.15
2022-11-02T23:54:15.258Z,1063.20
2022-11-02T23:56:46.712Z,1062.00
2022-11-02T23:59:16.465Z,1060.57
